Kezdőlap
METAR-TAF:

METAR-TAF

Repülőterek :

Agen, Franciaország

földrajzi szélesség: 44-11N, földrajzi hosszúság: 000-36E, magasság: 61 m

Jelenlegi meteorológiai megfigyelések

A jelentés 29 perccel ezelõtt készült, 15:00 UTC
Kelet-délkeleti szél 5 kt
Hőmérséklet 6°C
Páratartalom 100%
Légköri nyomás 1022 hPa
Látótávolság: 4500 m
Borult 300 lábon
Párásság

METAR: LFBA 061500Z AUTO 11005KT 4500 BR OVC003 06/06 Q1022 TEMPO 2000 BR BECMG VV///

Idő: 16:29 (15:29 UTC)

Előrejelzés

A jelentés 1 órával és 29 perccel ezelõtt készült, 14:00 UTC
Az előrejelzés 06-én 15 óra UTC és 06-én 24 óra UTC között érvényes
Kelet-délkeleti szél 4 kt
Látótávolság: 0400 m
köd
06-én 15 óra UTC és 06-én 21 óra UTC között ideiglenes
Látótávolság: 2000 m
Borult 200 lábon
Párásság

TAF: LFBA 061400Z 0615/0624 11004KT 0400 FG VV/// TEMPO 0615/0621 2000 BR OVC002

Meteorológiai megfigyelések és előrejelzések több, mint 4000 repülőtéren (METAR és TAF jelentéseket).

A térképen piros és sárga pontok jelzik az elérhető meteorológiai állomásokat.

Mozgassa az egeret a pont fölött, hogy megjelenjen az állomás neve.

Azután kattintson az időjárási megfigyelések és előrejelzések megtekintéséhez.

A térkép megváltoztatása: kattintson a fekete keresztel jelölt zöld gombra ráközelítéshez, a vonallal jelölt zöld gombra távolításhoz, vagy a zöld nyilakra a szomszédos térképek eléréséhez.


METAR-TAF: